createdAt,value
2019-05-06T00:02:04.563Z,5.23
2019-05-06T00:04:34.069Z,4.77
2019-05-06T00:07:04.303Z,4.97
2019-05-06T00:09:34.861Z,4.23
2019-05-06T00:12:04.074Z,4.93
2019-05-06T00:14:33.944Z,4.73
2019-05-06T00:17:03.913Z,4.80
2019-05-06T00:19:34.150Z,5.43
2019-05-06T00:22:04.736Z,4.80
2019-05-06T00:24:40.894Z,4.93
2019-05-06T00:27:17.466Z,5.23
2019-05-06T00:29:46.914Z,4.80
2019-05-06T00:32:15.897Z,5.00
2019-05-06T00:34:45.520Z,5.20
2019-05-06T00:37:15.524Z,4.80
2019-05-06T00:40:14.061Z,5.20
2019-05-06T00:43:01.953Z,4.80
2019-05-06T00:45:30.746Z,4.70
2019-05-06T00:47:59.552Z,5.07
2019-05-06T00:50:28.328Z,4.83
2019-05-06T00:52:57.788Z,5.20
2019-05-06T00:55:26.866Z,4.80
2019-05-06T00:57:55.662Z,4.93
2019-05-06T01:00:28.437Z,4.83
2019-05-06T01:02:57.226Z,4.40
2019-05-06T01:05:26.034Z,4.67
2019-05-06T01:07:55.102Z,5.33
2019-05-06T01:10:24.182Z,5.13
2019-05-06T01:13:07.684Z,5.30
2019-05-06T01:15:36.976Z,5.40
2019-05-06T01:18:05.842Z,5.57
2019-05-06T01:20:34.636Z,5.20
2019-05-06T01:23:03.852Z,5.70
2019-05-06T01:25:34.594Z,5.70
2019-05-06T01:28:04.255Z,4.90
2019-05-06T01:30:33.797Z,5.17
2019-05-06T01:33:03.970Z,5.30
2019-05-06T01:35:35.060Z,5.57
2019-05-06T01:38:21.274Z,5.80
2019-05-06T01:41:13.628Z,6.03
2019-05-06T01:43:43.864Z,5.47
2019-05-06T01:46:14.013Z,6.23
2019-05-06T01:48:49.178Z,5.67
2019-05-06T01:51:20.423Z,5.53
2019-05-06T01:53:49.812Z,5.70
2019-05-06T01:56:18.686Z,5.87
2019-05-06T01:58:47.611Z,6.13
2019-05-06T02:01:16.552Z,6.10
2019-05-06T02:03:45.475Z,6.50
2019-05-06T02:06:14.321Z,5.60
2019-05-06T02:08:44.850Z,6.10
2019-05-06T02:11:14.822Z,5.97
2019-05-06T02:13:44.428Z,5.73
2019-05-06T02:16:14.571Z,5.90
2019-05-06T02:18:45.526Z,6.00
2019-05-06T02:21:39.707Z,6.27
2019-05-06T02:24:13.379Z,6.63
2019-05-06T02:26:43.627Z,5.90
2019-05-06T02:29:15.245Z,6.70
2019-05-06T02:32:14.764Z,6.57
2019-05-06T02:34:45.831Z,7.07
2019-05-06T02:37:21.968Z,6.17
2019-05-06T02:39:53.449Z,6.30
2019-05-06T02:42:23.991Z,6.40
2019-05-06T02:44:54.139Z,6.67
2019-05-06T02:47:44.849Z,6.40
2019-05-06T02:50:16.347Z,6.97
2019-05-06T02:52:45.336Z,6.00
2019-05-06T02:55:14.332Z,6.33
2019-05-06T02:57:44.112Z,7.20
2019-05-06T03:00:14.782Z,6.80
2019-05-06T03:02:47.736Z,6.60
2019-05-06T03:05:14.238Z,7.40
2019-05-06T03:07:43.685Z,6.97
2019-05-06T03:10:15.060Z,7.20
2019-05-06T03:12:43.874Z,6.80
2019-05-06T03:15:16.327Z,6.33
2019-05-06T03:17:43.685Z,6.93
2019-05-06T03:20:19.902Z,7.20
2019-05-06T03:22:55.498Z,6.80
2019-05-06T03:25:32.930Z,7.00
2019-05-06T03:28:03.963Z,6.50
2019-05-06T03:30:35.852Z,7.03
2019-05-06T03:33:30.284Z,6.80
2019-05-06T03:35:48.386Z,6.73
2019-05-06T03:38:03.841Z,7.07
2019-05-06T03:40:36.125Z,7.93
2019-05-06T03:43:03.547Z,6.80
2019-05-06T03:45:42.934Z,7.27
2019-05-06T03:48:15.854Z,6.80
2019-05-06T03:50:44.660Z,6.70
2019-05-06T03:53:14.125Z,6.77
2019-05-06T03:55:46.992Z,7.17
2019-05-06T03:58:14.383Z,6.50
2019-05-06T04:00:43.850Z,6.43
2019-05-06T04:03:13.966Z,7.20
2019-05-06T04:05:43.928Z,7.33
2019-05-06T04:08:12.859Z,7.17
2019-05-06T04:10:43.501Z,7.30
2019-05-06T04:13:13.433Z,7.80
2019-05-06T04:16:16.947Z,7.20
2019-05-06T04:18:53.873Z,7.47
2019-05-06T04:21:28.474Z,7.53
2019-05-06T04:24:16.850Z,8.03
2019-05-06T04:27:13.442Z,7.50
2019-05-06T04:29:42.778Z,7.20
2019-05-06T04:32:13.835Z,7.33
2019-05-06T04:34:43.116Z,8.53
2019-05-06T04:37:14.450Z,8.23
2019-05-06T04:39:43.423Z,7.80
2019-05-06T04:42:13.755Z,7.77
2019-05-06T04:44:43.895Z,7.23
2019-05-06T04:47:14.870Z,7.43
2019-05-06T04:49:43.981Z,7.97
2019-05-06T04:52:13.985Z,7.53
2019-05-06T04:54:44.100Z,7.53
2019-05-06T04:57:13.091Z,7.67
2019-05-06T04:59:43.281Z,8.37
2019-05-06T05:02:13.254Z,8.20
2019-05-06T05:04:43.301Z,7.87
2019-05-06T05:07:12.894Z,8.10
2019-05-06T05:09:42.974Z,7.87
2019-05-06T05:12:22.677Z,7.60
2019-05-06T05:15:03.401Z,8.07
2019-05-06T05:17:46.735Z,7.97
2019-05-06T05:20:15.615Z,8.13
2019-05-06T05:22:45.095Z,7.53
2019-05-06T05:25:13.843Z,7.57
2019-05-06T05:27:42.729Z,7.93
2019-05-06T05:30:13.296Z,7.73
2019-05-06T05:32:42.822Z,7.80
2019-05-06T05:35:12.787Z,8.60
2019-05-06T05:37:42.015Z,8.20
2019-05-06T05:40:12.814Z,8.40
2019-05-06T05:42:54.026Z,8.33
2019-05-06T05:45:22.991Z,8.63
2019-05-06T05:47:53.456Z,7.90
2019-05-06T05:50:33.167Z,8.53
2019-05-06T05:53:02.578Z,7.70
2019-05-06T05:55:33.019Z,8.20
2019-05-06T05:58:03.185Z,8.60
2019-05-06T06:00:33.372Z,7.60
2019-05-06T06:03:02.906Z,8.27
2019-05-06T06:05:32.970Z,8.40
2019-05-06T06:08:02.949Z,8.83
2019-05-06T06:10:57.282Z,8.30
2019-05-06T06:13:26.268Z,8.50
2019-05-06T06:16:17.498Z,8.77
2019-05-06T06:19:06.803Z,9.43
2019-05-06T06:21:42.816Z,9.43
2019-05-06T06:24:25.067Z,9.87
2019-05-06T06:26:53.960Z,9.07
2019-05-06T06:29:22.914Z,10.33
2019-05-06T06:32:07.153Z,8.97
2019-05-06T06:34:42.562Z,9.03
2019-05-06T06:37:29.300Z,9.10
2019-05-06T06:39:58.860Z,8.23
2019-05-06T06:42:27.851Z,8.90
2019-05-06T06:44:56.638Z,9.23
2019-05-06T06:47:25.471Z,8.67
2019-05-06T06:49:54.319Z,9.40
2019-05-06T06:52:23.354Z,9.43
2019-05-06T06:54:52.847Z,8.90
2019-05-06T06:57:42.436Z,9.67
2019-05-06T07:00:23.879Z,9.70
2019-05-06T07:02:58.195Z,10.50
2019-05-06T07:05:35.619Z,9.80
2019-05-06T07:08:04.561Z,10.20
2019-05-06T07:10:52.608Z,9.47
2019-05-06T07:13:23.230Z,9.93
2019-05-06T07:15:52.194Z,10.47
2019-05-06T07:18:22.594Z,9.97
2019-05-06T07:21:04.871Z,8.93
2019-05-06T07:23:32.827Z,9.20
2019-05-06T07:26:03.034Z,9.53
2019-05-06T07:28:33.535Z,9.60
2019-05-06T07:31:17.616Z,9.53
2019-05-06T07:33:33.684Z,8.80
2019-05-06T07:36:02.672Z,9.83
2019-05-06T07:38:33.120Z,9.97
2019-05-06T07:41:16.210Z,10.23
2019-05-06T07:44:07.023Z,9.03
2019-05-06T07:47:03.771Z,9.27
2019-05-06T07:49:32.998Z,9.07
2019-05-06T07:52:02.862Z,8.93
2019-05-06T07:54:32.961Z,9.13
2019-05-06T07:57:02.485Z,9.00
2019-05-06T07:59:33.281Z,9.40
2019-05-06T08:02:02.348Z,10.07
2019-05-06T08:04:32.443Z,8.57
2019-05-06T08:07:03.142Z,7.90
2019-05-06T08:09:32.565Z,6.70
2019-05-06T08:12:02.824Z,6.13
2019-05-06T08:14:43.061Z,6.67
2019-05-06T08:17:16.619Z,5.50
2019-05-06T08:19:45.590Z,5.30
2019-05-06T08:22:18.194Z,4.60
2019-05-06T08:24:47.084Z,4.90
2019-05-06T08:27:16.092Z,4.97
2019-05-06T08:29:45.116Z,4.93
2019-05-06T08:32:13.949Z,4.67
2019-05-06T08:34:42.751Z,5.30
2019-05-06T08:37:42.716Z,4.20
2019-05-06T08:40:12.038Z,3.97
2019-05-06T08:42:42.646Z,4.73
2019-05-06T08:45:12.834Z,4.40
2019-05-06T08:47:42.702Z,5.10
2019-05-06T08:50:48.896Z,5.10
2019-05-06T08:53:24.188Z,4.53
2019-05-06T08:55:53.608Z,4.40
2019-05-06T08:58:43.135Z,4.40
2019-05-06T09:01:14.005Z,4.87
2019-05-06T09:03:44.065Z,5.23
2019-05-06T09:06:26.532Z,4.40
2019-05-06T09:08:43.584Z,4.10
2019-05-06T09:11:12.377Z,3.57
2019-05-06T09:13:42.883Z,3.27
2019-05-06T09:16:12.985Z,3.40
2019-05-06T09:18:42.738Z,3.97
2019-05-06T09:21:12.263Z,3.80
2019-05-06T09:23:42.457Z,3.93
2019-05-06T09:26:13.327Z,3.67
2019-05-06T09:28:54.996Z,3.87
2019-05-06T09:31:32.214Z,4.13
2019-05-06T09:34:07.754Z,3.83
2019-05-06T09:36:43.845Z,3.60
2019-05-06T09:39:08.095Z,3.43
2019-05-06T09:41:37.428Z,3.83
2019-05-06T09:44:06.257Z,3.50
2019-05-06T09:46:35.067Z,3.50
2019-05-06T09:49:17.370Z,3.30
2019-05-06T09:51:46.228Z,2.90
2019-05-06T09:54:33.035Z,3.10
2019-05-06T09:57:14.975Z,3.00
2019-05-06T09:59:43.767Z,3.10
2019-05-06T10:02:12.726Z,3.13
2019-05-06T10:04:42.826Z,3.43
2019-05-06T10:07:12.055Z,3.50
2019-05-06T10:09:43.230Z,3.50
2019-05-06T10:12:12.733Z,3.87
2019-05-06T10:14:43.380Z,4.27
2019-05-06T10:17:13.311Z,4.50
2019-05-06T10:19:42.993Z,4.53
2019-05-06T10:22:12.755Z,4.60
2019-05-06T10:24:43.175Z,4.57
2019-05-06T10:27:12.619Z,4.13
2019-05-06T10:29:49.365Z,4.80
2019-05-06T10:32:37.298Z,4.40
2019-05-06T10:35:06.539Z,4.53
2019-05-06T10:37:49.158Z,4.83
2019-05-06T10:40:19.478Z,4.33
2019-05-06T10:42:52.367Z,4.30
2019-05-06T10:45:32.457Z,4.90
2019-05-06T10:48:02.378Z,4.30
2019-05-06T10:50:35.198Z,4.33
2019-05-06T10:53:18.138Z,4.73
2019-05-06T10:55:53.669Z,4.40
2019-05-06T10:58:22.745Z,4.53
2019-05-06T11:00:56.974Z,4.47
2019-05-06T11:03:27.749Z,5.00
2019-05-06T11:05:56.692Z,5.00
2019-05-06T11:08:25.542Z,4.60
2019-05-06T11:10:54.468Z,5.27
2019-05-06T11:13:24.417Z,5.13
2019-05-06T11:15:55.640Z,5.20
2019-05-06T11:18:24.375Z,5.67
2019-05-06T11:20:56.309Z,5.30
2019-05-06T11:23:25.297Z,5.60
2019-05-06T11:25:54.088Z,5.20
2019-05-06T11:28:42.701Z,5.77
2019-05-06T11:31:25.780Z,5.20
2019-05-06T11:34:16.450Z,4.87
2019-05-06T11:36:52.384Z,5.07
2019-05-06T11:39:23.278Z,5.37
2019-05-06T11:42:06.352Z,5.03
2019-05-06T11:44:24.097Z,5.57
2019-05-06T11:46:53.123Z,6.53
2019-05-06T11:49:23.296Z,5.67
2019-05-06T11:51:52.680Z,5.30
2019-05-06T11:54:24.341Z,5.30
2019-05-06T11:56:57.976Z,4.50
2019-05-06T11:59:23.094Z,5.10
2019-05-06T12:01:55.449Z,5.23
2019-05-06T12:04:24.718Z,4.87
2019-05-06T12:07:10.057Z,4.67
2019-05-06T12:09:24.316Z,4.90
2019-05-06T12:11:53.383Z,5.03
2019-05-06T12:14:22.714Z,6.90
2019-05-06T12:16:54.744Z,6.93
2019-05-06T12:19:22.705Z,7.07
2019-05-06T12:21:51.955Z,6.73
2019-05-06T12:24:22.903Z,6.80
2019-05-06T12:26:52.185Z,6.93
2019-05-06T12:29:21.074Z,6.80
2019-05-06T12:32:03.523Z,7.00
2019-05-06T12:34:32.390Z,6.73
2019-05-06T12:37:04.033Z,6.97
2019-05-06T12:39:33.517Z,6.80
2019-05-06T12:42:12.782Z,7.13
2019-05-06T12:44:45.150Z,7.20
2019-05-06T12:47:23.576Z,7.60
2019-05-06T12:49:53.393Z,7.63
2019-05-06T12:52:24.496Z,7.30
2019-05-06T12:55:13.681Z,7.00
2019-05-06T12:57:25.555Z,6.93
2019-05-06T12:59:54.558Z,7.30
2019-05-06T13:02:23.926Z,6.67
2019-05-06T13:04:59.697Z,7.23
2019-05-06T13:07:32.415Z,7.67
2019-05-06T13:10:02.791Z,7.80
2019-05-06T13:12:33.717Z,6.57
2019-05-06T13:15:04.655Z,7.07
2019-05-06T13:17:33.817Z,7.50
2019-05-06T13:20:03.054Z,7.50
2019-05-06T13:22:41.155Z,8.10
2019-05-06T13:25:13.522Z,7.28
2019-05-06T13:27:42.806Z,6.53
2019-05-06T13:30:12.919Z,6.43
2019-05-06T13:32:45.509Z,7.33
2019-05-06T13:35:14.742Z,7.60
2019-05-06T13:37:43.985Z,9.27
2019-05-06T13:40:13.055Z,9.53
2019-05-06T13:42:43.599Z,9.07
2019-05-06T13:45:12.427Z,8.27
2019-05-06T13:47:59.292Z,8.73
2019-05-06T13:50:31.237Z,8.10
2019-05-06T13:53:09.178Z,7.90
2019-05-06T13:55:35.414Z,7.83
2019-05-06T13:58:04.281Z,9.80
2019-05-06T14:00:34.828Z,9.73
2019-05-06T14:03:03.695Z,9.90
2019-05-06T14:05:32.995Z,10.50
2019-05-06T14:08:04.681Z,11.73
2019-05-06T14:10:32.847Z,12.03
2019-05-06T14:13:02.403Z,12.60
2019-05-06T14:15:32.552Z,12.43
2019-05-06T14:18:02.646Z,11.57
2019-05-06T14:20:33.547Z,11.80
2019-05-06T14:23:02.794Z,11.87
2019-05-06T14:25:56.826Z,11.13
2019-05-06T14:28:33.661Z,12.27
2019-05-06T14:31:06.537Z,12.93
2019-05-06T14:33:35.431Z,11.70
2019-05-06T14:36:04.358Z,12.37
2019-05-06T14:38:33.500Z,12.63
2019-05-06T14:41:14.846Z,13.53
2019-05-06T14:43:43.647Z,12.33
2019-05-06T14:46:12.436Z,12.00
2019-05-06T14:48:43.611Z,11.40
2019-05-06T14:51:13.041Z,11.07
2019-05-06T14:53:43.705Z,10.73
2019-05-06T14:56:24.658Z,10.80
2019-05-06T14:59:06.960Z,10.80
2019-05-06T15:01:37.211Z,9.60
2019-05-06T15:04:06.484Z,9.80
2019-05-06T15:06:35.332Z,9.73
2019-05-06T15:09:06.685Z,9.20
2019-05-06T15:11:35.597Z,9.43
2019-05-06T15:14:05.044Z,9.50
2019-05-06T15:16:33.939Z,8.93
2019-05-06T15:19:03.977Z,8.80
2019-05-06T15:21:38.298Z,8.57
2019-05-06T15:24:04.319Z,8.60
2019-05-06T15:26:33.789Z,7.93
2019-05-06T15:29:03.465Z,8.33
2019-05-06T15:31:52.946Z,8.30
2019-05-06T15:34:27.518Z,7.67
2019-05-06T15:37:06.036Z,7.80
2019-05-06T15:39:34.855Z,7.37
2019-05-06T15:42:03.862Z,7.07
2019-05-06T15:44:35.344Z,7.93
2019-05-06T15:47:03.496Z,7.90
2019-05-06T15:49:32.428Z,8.07
2019-05-06T15:52:03.635Z,7.43
2019-05-06T15:54:32.287Z,8.50
2019-05-06T15:57:01.401Z,9.10
2019-05-06T15:59:30.236Z,8.57
2019-05-06T16:02:01.808Z,9.63
2019-05-06T16:04:32.271Z,9.17
2019-05-06T16:07:02.838Z,9.47
2019-05-06T16:09:32.473Z,10.80
2019-05-06T16:12:03.048Z,10.93
2019-05-06T16:14:34.711Z,10.57
2019-05-06T16:17:02.698Z,11.57
2019-05-06T16:19:33.609Z,12.30
2019-05-06T16:22:04.076Z,12.50
2019-05-06T16:24:38.293Z,13.10
2019-05-06T16:27:07.325Z,20.73
2019-05-06T16:29:36.105Z,13.37
2019-05-06T16:32:05.887Z,11.57
2019-05-06T16:34:34.947Z,11.57
2019-05-06T16:37:03.957Z,11.80
2019-05-06T16:39:33.241Z,11.33
2019-05-06T16:42:03.773Z,11.67
2019-05-06T16:44:32.843Z,11.93
2019-05-06T16:47:03.085Z,11.93
2019-05-06T16:49:33.179Z,12.57
2019-05-06T16:52:02.831Z,13.40
2019-05-06T16:54:34.486Z,13.00
2019-05-06T16:57:14.005Z,14.40
2019-05-06T16:59:42.900Z,13.43
2019-05-06T17:02:18.268Z,14.87
2019-05-06T17:05:05.966Z,15.00
2019-05-06T17:07:35.490Z,14.90
2019-05-06T17:10:06.235Z,16.17
2019-05-06T17:12:35.303Z,17.43
2019-05-06T17:15:04.944Z,16.10
2019-05-06T17:17:43.406Z,17.10
2019-05-06T17:20:04.865Z,17.33
2019-05-06T17:22:33.885Z,18.23
2019-05-06T17:25:02.949Z,18.33
2019-05-06T17:27:32.940Z,18.40
2019-05-06T17:30:22.462Z,18.63
2019-05-06T17:32:54.028Z,19.27
2019-05-06T17:35:23.456Z,19.53
2019-05-06T17:38:10.409Z,19.07
2019-05-06T17:40:39.237Z,19.10
2019-05-06T17:43:08.280Z,19.27
2019-05-06T17:46:01.825Z,19.27
2019-05-06T17:48:39.399Z,19.33
2019-05-06T17:51:09.621Z,20.57
2019-05-06T17:53:42.588Z,20.30
2019-05-06T17:56:12.535Z,20.43
2019-05-06T17:58:42.319Z,20.00
2019-05-06T18:01:12.703Z,20.63
2019-05-06T18:03:42.011Z,20.47
2019-05-06T18:06:14.242Z,20.27
2019-05-06T18:08:43.389Z,20.57
2019-05-06T18:11:13.044Z,21.07
2019-05-06T18:13:42.009Z,19.47
2019-05-06T18:16:13.212Z,20.50
2019-05-06T18:18:42.227Z,20.60
2019-05-06T18:21:12.362Z,20.83
2019-05-06T18:23:41.746Z,21.33
2019-05-06T18:26:12.251Z,21.53
2019-05-06T18:28:43.040Z,20.60
2019-05-06T18:31:12.559Z,20.70
2019-05-06T18:33:43.129Z,17.17
2019-05-06T18:36:12.983Z,16.43
2019-05-06T18:38:42.233Z,12.43
2019-05-06T18:41:11.981Z,8.83
2019-05-06T18:43:42.226Z,11.10
2019-05-06T18:46:12.177Z,12.43
2019-05-06T18:48:42.724Z,10.00
2019-05-06T18:51:13.347Z,10.40
2019-05-06T18:53:42.306Z,9.50
2019-05-06T18:56:12.679Z,10.77
2019-05-06T18:58:42.904Z,12.70
2019-05-06T19:01:13.279Z,16.67
2019-05-06T19:03:58.061Z,16.63
2019-05-06T19:06:27.401Z,15.67
2019-05-06T19:09:02.742Z,15.67
2019-05-06T19:11:32.726Z,16.20
2019-05-06T19:14:02.171Z,15.13
2019-05-06T19:16:46.227Z,15.10
2019-05-06T19:19:05.738Z,16.43
2019-05-06T19:21:33.747Z,14.77
2019-05-06T19:24:02.963Z,13.77
2019-05-06T19:26:32.780Z,15.33
2019-05-06T19:29:04.352Z,15.20
2019-05-06T19:31:32.708Z,15.80
2019-05-06T19:34:03.283Z,16.53
2019-05-06T19:36:34.764Z,18.20
2019-05-06T19:39:04.737Z,17.70
2019-05-06T19:41:33.703Z,16.37
2019-05-06T19:44:02.762Z,17.57
2019-05-06T19:46:32.690Z,17.03
2019-05-06T19:49:02.097Z,16.87
2019-05-06T19:51:33.043Z,17.03
2019-05-06T19:54:02.531Z,16.63
2019-05-06T19:56:31.411Z,16.57
2019-05-06T19:59:02.089Z,23.03
2019-05-06T20:01:32.295Z,39.07
2019-05-06T20:04:02.471Z,36.37
2019-05-06T20:06:52.701Z,24.73
2019-05-06T20:09:43.552Z,21.93
2019-05-06T20:12:18.700Z,19.30
2019-05-06T20:14:47.539Z,18.63
2019-05-06T20:17:16.374Z,18.33
2019-05-06T20:19:45.633Z,17.47
2019-05-06T20:22:14.645Z,18.03
2019-05-06T20:24:43.566Z,15.67
2019-05-06T20:27:13.288Z,16.10
2019-05-06T20:29:42.966Z,16.33
2019-05-06T20:32:12.195Z,16.70
2019-05-06T20:34:42.861Z,16.20
2019-05-06T20:37:13.101Z,15.90
2019-05-06T20:39:43.344Z,15.87
2019-05-06T20:42:12.889Z,15.17
2019-05-06T20:44:43.372Z,14.73
2019-05-06T20:47:13.091Z,14.57
2019-05-06T20:49:43.186Z,14.87
2019-05-06T20:52:12.514Z,14.83
2019-05-06T20:54:42.664Z,14.53
2019-05-06T20:57:12.427Z,16.00
2019-05-06T20:59:42.104Z,16.00
2019-05-06T21:02:12.495Z,15.90
2019-05-06T21:04:43.119Z,15.80
2019-05-06T21:07:12.520Z,16.23
2019-05-06T21:09:43.198Z,16.10
2019-05-06T21:12:12.427Z,16.03
2019-05-06T21:14:42.137Z,17.57
2019-05-06T21:17:12.319Z,17.13
2019-05-06T21:19:41.584Z,16.63
2019-05-06T21:22:10.412Z,16.77
2019-05-06T21:24:39.295Z,16.43
2019-05-06T21:27:08.195Z,17.00
2019-05-06T21:29:37.675Z,16.73
2019-05-06T21:32:06.994Z,17.37
2019-05-06T21:34:36.240Z,16.60
2019-05-06T21:37:05.363Z,17.43
2019-05-06T21:39:34.632Z,17.03
2019-05-06T21:42:03.525Z,17.30
2019-05-06T21:44:32.603Z,17.63
2019-05-06T21:47:02.903Z,18.87
2019-05-06T21:49:32.808Z,18.98
2019-05-06T21:52:02.335Z,17.43
2019-05-06T21:54:32.770Z,18.70
2019-05-06T21:57:02.968Z,18.57
2019-05-06T21:59:32.453Z,18.30
2019-05-06T22:02:04.396Z,19.30
2019-05-06T22:04:33.386Z,19.47
2019-05-06T22:07:03.023Z,19.43
2019-05-06T22:09:32.435Z,20.47
2019-05-06T22:12:02.524Z,19.70
2019-05-06T22:14:34.054Z,19.63
2019-05-06T22:17:04.698Z,19.97
2019-05-06T22:19:33.570Z,19.93
2019-05-06T22:22:06.453Z,20.17
2019-05-06T22:25:03.531Z,19.93
2019-05-06T22:27:32.511Z,17.93
2019-05-06T22:30:03.251Z,17.87
2019-05-06T22:32:35.313Z,18.73
2019-05-06T22:35:04.767Z,18.67
2019-05-06T22:37:34.207Z,18.20
2019-05-06T22:40:05.213Z,16.57
2019-05-06T22:42:34.358Z,16.07
2019-05-06T22:45:03.764Z,15.50
2019-05-06T22:47:32.642Z,15.87
2019-05-06T22:50:02.145Z,16.03
2019-05-06T22:52:32.546Z,15.13
2019-05-06T22:55:03.971Z,15.07
2019-05-06T22:57:33.187Z,13.20
2019-05-06T23:00:03.506Z,12.43
2019-05-06T23:02:45.470Z,12.43
2019-05-06T23:05:14.298Z,11.50
2019-05-06T23:07:43.271Z,12.53
2019-05-06T23:10:12.116Z,12.27
2019-05-06T23:12:43.181Z,11.90
2019-05-06T23:15:12.232Z,12.37
2019-05-06T23:17:42.119Z,11.40
2019-05-06T23:20:11.564Z,11.93
2019-05-06T23:22:42.291Z,11.00
2019-05-06T23:25:13.054Z,11.87
2019-05-06T23:27:43.963Z,12.43
2019-05-06T23:30:14.342Z,12.30
2019-05-06T23:32:43.339Z,11.40
2019-05-06T23:35:12.963Z,11.63
2019-05-06T23:37:59.956Z,11.40
2019-05-06T23:40:46.580Z,11.93
2019-05-06T23:43:33.386Z,11.23
2019-05-06T23:46:20.246Z,10.80
2019-05-06T23:49:07.523Z,10.83
2019-05-06T23:51:54.444Z,11.10
2019-05-06T23:54:42.786Z,11.20
2019-05-06T23:57:11.764Z,11.57
2019-05-06T23:59:42.970Z,11.37
